createdAt,value
2023-06-19T00:02:37.719Z,8.00
2023-06-19T00:06:37.914Z,8.70
2023-06-19T00:10:37.847Z,10.20
2023-06-19T00:14:37.627Z,10.70
2023-06-19T00:18:40.044Z,12.30
2023-06-19T00:22:37.672Z,14.60
2023-06-19T00:26:38.186Z,15.90
2023-06-19T00:30:37.854Z,15.80
2023-06-19T00:38:38.131Z,13.90
2023-06-19T00:42:37.742Z,14.60
2023-06-19T00:46:40.171Z,12.90
2023-06-19T00:50:37.879Z,13.40
2023-06-19T00:54:38.112Z,13.80
2023-06-19T00:58:38.784Z,14.60
2023-06-19T01:02:38.666Z,12.20
2023-06-19T01:06:45.016Z,14.20
2023-06-19T01:10:42.049Z,13.20
2023-06-19T01:14:46.410Z,15.00
2023-06-19T01:18:38.558Z,12.70
2023-06-19T01:22:38.103Z,14.70
2023-06-19T01:26:37.985Z,12.80
2023-06-19T01:30:41.766Z,13.20
2023-06-19T01:34:40.914Z,12.20
2023-06-19T01:38:39.839Z,12.60
2023-06-19T01:42:40.055Z,11.20
2023-06-19T01:46:38.060Z,12.20
2023-06-19T01:50:37.993Z,11.60
2023-06-19T01:54:37.862Z,12.60
2023-06-19T01:58:37.987Z,10.20
2023-06-19T02:02:37.925Z,12.50
2023-06-19T02:06:38.089Z,11.60
2023-06-19T02:10:37.951Z,10.00
2023-06-19T02:14:38.098Z,10.60
2023-06-19T02:18:37.964Z,10.70
2023-06-19T02:22:38.180Z,11.10
2023-06-19T02:26:38.188Z,10.10
2023-06-19T02:30:38.114Z,8.30
2023-06-19T02:34:37.943Z,9.30
2023-06-19T02:38:38.212Z,8.70
2023-06-19T02:42:38.041Z,10.20
2023-06-19T02:46:38.292Z,8.70
2023-06-19T02:50:38.293Z,11.10
2023-06-19T02:54:38.204Z,9.90
2023-06-19T02:58:38.645Z,8.90
2023-06-19T03:02:41.922Z,9.50
2023-06-19T03:10:38.251Z,8.50
2023-06-19T03:14:38.126Z,9.70
2023-06-19T03:18:38.360Z,9.80
2023-06-19T03:22:39.192Z,10.10
2023-06-19T03:26:38.474Z,9.90
2023-06-19T03:30:38.147Z,9.60
2023-06-19T03:34:38.292Z,8.70
2023-06-19T03:38:38.315Z,9.70
2023-06-19T03:42:38.323Z,9.70
2023-06-19T03:46:38.195Z,11.00
2023-06-19T03:50:38.835Z,9.80
2023-06-19T03:54:38.237Z,8.10
2023-06-19T03:58:38.409Z,11.00
2023-06-19T04:02:38.302Z,11.20
2023-06-19T04:06:38.340Z,9.40
2023-06-19T04:10:38.272Z,10.30
2023-06-19T04:14:38.326Z,9.50
2023-06-19T04:18:38.328Z,9.40
2023-06-19T04:22:39.044Z,9.30
2023-06-19T04:26:38.330Z,8.60
2023-06-19T04:30:39.643Z,8.20
2023-06-19T04:34:38.788Z,10.60
2023-06-19T04:38:38.579Z,7.40
2023-06-19T04:42:38.818Z,7.60
2023-06-19T04:46:38.924Z,6.80
2023-06-19T04:50:38.527Z,8.90
2023-06-19T04:54:38.799Z,7.80
2023-06-19T04:58:44.086Z,6.20
2023-06-19T05:02:38.740Z,6.20
2023-06-19T05:06:38.392Z,7.90
2023-06-19T05:10:38.538Z,8.10
2023-06-19T05:14:51.948Z,6.40
2023-06-19T05:18:38.695Z,8.60
2023-06-19T05:22:38.523Z,6.20
2023-06-19T05:26:38.643Z,8.50
2023-06-19T05:30:38.472Z,7.20
2023-06-19T05:34:38.653Z,7.10
2023-06-19T05:38:38.542Z,7.60
2023-06-19T05:42:39.718Z,7.10
2023-06-19T05:46:38.496Z,7.10
2023-06-19T06:02:38.783Z,5.50
2023-06-19T06:06:38.561Z,5.20
2023-06-19T06:10:38.788Z,7.00
2023-06-19T06:14:40.166Z,6.80
2023-06-19T06:18:38.820Z,6.00
2023-06-19T06:22:39.026Z,5.30
2023-06-19T06:26:38.839Z,6.40
2023-06-19T06:30:58.043Z,5.00
2023-06-19T06:34:39.033Z,5.00
2023-06-19T06:38:38.779Z,5.50
2023-06-19T06:42:39.056Z,5.40
2023-06-19T06:46:38.822Z,6.90
2023-06-19T06:50:38.767Z,7.20
2023-06-19T06:54:38.809Z,7.30
2023-06-19T06:58:39.297Z,5.80
2023-06-19T07:02:39.939Z,7.00
2023-06-19T07:06:38.860Z,5.70
2023-06-19T07:10:38.857Z,6.40
2023-06-19T07:14:38.819Z,6.10
2023-06-19T07:18:40.901Z,7.60
2023-06-19T07:22:39.777Z,6.70
2023-06-19T07:26:38.887Z,7.20
2023-06-19T07:30:39.292Z,6.90
2023-06-19T07:34:38.925Z,7.90
2023-06-19T07:38:38.949Z,8.40
2023-06-19T07:42:39.085Z,7.00
2023-06-19T07:46:39.296Z,5.00
2023-06-19T07:50:38.869Z,6.40
2023-06-19T07:54:48.265Z,10.70
2023-06-19T07:58:38.910Z,6.70
2023-06-19T08:02:40.051Z,4.30
2023-06-19T08:06:38.975Z,4.90
2023-06-19T08:10:39.310Z,6.50
2023-06-19T08:14:38.946Z,6.20
2023-06-19T08:18:39.023Z,4.60
2023-06-19T08:22:38.986Z,5.30
2023-06-19T08:26:39.318Z,4.10
2023-06-19T08:30:38.968Z,6.30
2023-06-19T08:34:39.369Z,4.80
2023-06-19T08:38:39.031Z,5.10
2023-06-19T08:42:39.850Z,3.30
2023-06-19T08:46:40.354Z,5.50
2023-06-19T08:50:39.283Z,3.00
2023-06-19T08:54:43.848Z,2.40
2023-06-19T08:58:39.182Z,5.30
2023-06-19T09:02:42.188Z,4.70
2023-06-19T09:06:48.027Z,5.90
2023-06-19T09:10:39.105Z,4.20
2023-06-19T09:14:40.733Z,4.60
2023-06-19T09:18:44.648Z,4.80
2023-06-19T09:22:39.655Z,2.50
2023-06-19T09:26:40.196Z,3.10
2023-06-19T09:30:53.571Z,3.90
2023-06-19T09:34:39.977Z,3.60
2023-06-19T09:38:41.147Z,3.10
2023-06-19T09:42:42.601Z,2.60
2023-06-19T09:46:45.594Z,4.50
2023-06-19T09:50:40.304Z,5.10
2023-06-19T09:54:41.423Z,3.50
2023-06-19T10:00:38.513Z,2.70
2023-06-19T10:02:40.859Z,2.70
2023-06-19T10:06:44.060Z,3.80
2023-06-19T10:10:47.455Z,5.10
2023-06-19T10:14:47.206Z,5.50
2023-06-19T10:22:53.207Z,6.10
2023-06-19T10:26:39.433Z,4.70
2023-06-19T10:30:39.490Z,5.30
2023-06-19T10:34:39.491Z,4.70
2023-06-19T10:38:39.884Z,5.10
2023-06-19T10:42:40.297Z,6.30
2023-06-19T10:46:40.399Z,4.20
2023-06-19T10:50:42.541Z,4.50
2023-06-19T10:54:39.571Z,5.60
2023-06-19T10:58:39.558Z,3.00
2023-06-19T11:02:43.129Z,3.80
2023-06-19T11:06:40.742Z,4.50
2023-06-19T11:11:40.476Z,2.90
2023-06-19T11:14:40.196Z,2.90
2023-06-19T11:18:39.805Z,3.00
2023-06-19T11:21:57.767Z,3.60
2023-06-19T11:22:41.345Z,3.60
2023-06-19T11:26:43.939Z,3.90
2023-06-19T11:30:40.655Z,2.50
2023-06-19T11:34:39.895Z,2.80
2023-06-19T11:38:41.141Z,2.40
2023-06-19T11:42:53.197Z,3.30
2023-06-19T11:46:39.830Z,2.90
2023-06-19T11:50:39.860Z,4.00
2023-06-19T11:54:39.617Z,3.20
2023-06-19T11:58:39.722Z,4.50
2023-06-19T12:02:39.814Z,2.90
2023-06-19T12:06:39.712Z,3.00
2023-06-19T12:10:39.652Z,3.60
2023-06-19T12:14:39.988Z,2.70
2023-06-19T12:22:40.456Z,2.90
2023-06-19T12:26:40.040Z,5.00
2023-06-19T12:30:39.899Z,3.20
2023-06-19T12:34:40.362Z,3.00
2023-06-19T12:38:40.501Z,2.70
2023-06-19T12:42:40.039Z,2.40
2023-06-19T12:46:40.037Z,2.30
2023-06-19T12:50:39.793Z,4.10
2023-06-19T12:54:42.229Z,4.90
2023-06-19T12:58:39.827Z,2.90
2023-06-19T13:02:40.184Z,4.30
2023-06-19T13:06:39.967Z,1.90
2023-06-19T13:10:40.641Z,8.40
2023-06-19T13:14:39.935Z,3.00
2023-06-19T13:18:39.956Z,2.50
2023-06-19T13:22:40.217Z,1.60
2023-06-19T13:26:40.338Z,4.70
2023-06-19T13:30:39.899Z,1.90
2023-06-19T13:34:40.227Z,1.40
2023-06-19T13:38:41.523Z,4.70
2023-06-19T13:42:40.075Z,6.40
2023-06-19T13:46:40.284Z,1.90
2023-06-19T13:50:40.321Z,5.10
2023-06-19T13:54:39.984Z,2.10
2023-06-19T13:58:40.202Z,1.70
2023-06-19T14:02:40.863Z,3.00
2023-06-19T14:06:42.642Z,3.20
2023-06-19T14:10:40.385Z,3.90
2023-06-19T14:14:40.220Z,2.70
2023-06-19T14:18:40.025Z,4.80
2023-06-19T14:22:40.393Z,3.60
2023-06-19T14:26:40.226Z,1.40
2023-06-19T14:30:40.438Z,2.30
2023-06-19T14:34:40.056Z,3.50
2023-06-19T14:38:40.167Z,2.10
2023-06-19T14:42:40.442Z,1.60
2023-06-19T14:46:40.548Z,3.20
2023-06-19T14:50:40.328Z,1.30
2023-06-19T14:54:40.238Z,3.70
2023-06-19T14:58:40.181Z,1.40
2023-06-19T15:02:41.495Z,1.90
2023-06-19T15:06:40.338Z,2.10
2023-06-19T15:10:40.437Z,3.70
2023-06-19T15:14:41.181Z,2.20
2023-06-19T15:18:41.336Z,2.60
2023-06-19T15:22:40.172Z,1.50
2023-06-19T15:26:40.554Z,1.70
2023-06-19T15:30:40.232Z,1.90
2023-06-19T15:34:41.068Z,2.30
2023-06-19T15:38:40.536Z,2.80
2023-06-19T15:42:40.409Z,3.50
2023-06-19T15:46:40.339Z,2.00
2023-06-19T15:50:40.646Z,2.10
2023-06-19T15:54:40.282Z,1.60
2023-06-19T15:58:40.423Z,2.80
2023-06-19T16:02:43.328Z,3.10
2023-06-19T16:06:41.376Z,2.20
2023-06-19T16:10:40.437Z,3.10
2023-06-19T16:14:40.430Z,2.30
2023-06-19T16:18:40.796Z,2.00
2023-06-19T16:22:40.514Z,2.70
2023-06-19T16:26:40.550Z,1.40
2023-06-19T16:30:40.456Z,3.00
2023-06-19T16:34:40.588Z,1.50
2023-06-19T16:38:41.390Z,2.70
2023-06-19T16:42:40.473Z,2.00
2023-06-19T16:46:40.533Z,1.80
2023-06-19T16:50:40.661Z,1.20
2023-06-19T16:54:41.698Z,1.90
2023-06-19T16:58:40.575Z,1.20
2023-06-19T17:02:40.710Z,1.20
2023-06-19T17:06:40.562Z,2.30
2023-06-19T17:10:40.716Z,1.90
2023-06-19T17:14:41.521Z,1.30
2023-06-19T17:18:40.670Z,2.00
2023-06-19T17:22:40.634Z,1.50
2023-06-19T17:30:40.929Z,1.60
2023-06-19T17:34:40.613Z,5.90
2023-06-19T17:38:40.686Z,2.60
2023-06-19T17:42:41.137Z,3.90
2023-06-19T17:46:41.016Z,1.20
2023-06-19T17:50:40.697Z,3.20
2023-06-19T17:54:40.967Z,3.00
2023-06-19T17:58:40.620Z,1.80
2023-06-19T18:02:41.045Z,2.30
2023-06-19T18:06:40.739Z,1.60
2023-06-19T18:10:40.761Z,2.60
2023-06-19T18:14:40.893Z,2.50
2023-06-19T18:18:40.821Z,1.40
2023-06-19T18:22:40.947Z,2.80
2023-06-19T18:26:40.827Z,1.20
2023-06-19T18:30:40.766Z,1.70
2023-06-19T18:34:40.872Z,1.90
2023-06-19T18:38:40.782Z,2.00
2023-06-19T18:42:41.138Z,1.50
2023-06-19T18:46:41.212Z,2.50
2023-06-19T18:50:40.953Z,1.30
2023-06-19T18:54:41.141Z,1.10
2023-06-19T18:58:40.869Z,1.40
2023-06-19T19:02:40.971Z,2.70
2023-06-19T19:06:40.932Z,1.30
2023-06-19T19:10:41.908Z,2.90
2023-06-19T19:14:42.606Z,1.50
2023-06-19T19:18:41.153Z,2.50
2023-06-19T19:22:41.023Z,2.90
2023-06-19T19:26:41.869Z,1.60
2023-06-19T19:30:41.647Z,2.10
2023-06-19T19:34:40.917Z,3.10
2023-06-19T19:38:41.088Z,1.20
2023-06-19T19:42:40.950Z,1.70
2023-06-19T19:46:41.885Z,1.80
2023-06-19T19:50:41.062Z,2.20
2023-06-19T19:54:41.369Z,1.60
2023-06-19T19:58:41.057Z,4.60
2023-06-19T20:02:41.502Z,2.60
2023-06-19T20:06:41.003Z,3.80
2023-06-19T20:10:43.294Z,2.10
2023-06-19T20:14:41.154Z,2.00
2023-06-19T20:18:41.463Z,1.70
2023-06-19T20:22:41.057Z,1.40
2023-06-19T20:26:41.266Z,2.50
2023-06-19T20:30:41.559Z,2.70
2023-06-19T20:34:41.192Z,1.40
2023-06-19T20:38:41.240Z,2.10
2023-06-19T20:42:41.352Z,1.40
2023-06-19T20:46:41.137Z,1.70
2023-06-19T20:50:42.213Z,3.00
2023-06-19T20:54:41.252Z,2.50
2023-06-19T20:58:41.698Z,1.90
2023-06-19T21:02:41.419Z,1.50
2023-06-19T21:06:41.440Z,3.40
2023-06-19T21:10:43.052Z,2.40
2023-06-19T21:14:41.411Z,3.10
2023-06-19T21:18:41.243Z,2.30
2023-06-19T21:22:41.431Z,3.00
2023-06-19T21:26:41.342Z,3.70
2023-06-19T21:30:41.481Z,2.80
2023-06-19T21:34:41.411Z,2.00
2023-06-19T21:38:41.466Z,1.90
2023-06-19T21:42:41.370Z,2.90
2023-06-19T21:46:41.608Z,1.30
2023-06-19T21:50:41.340Z,2.20
2023-06-19T21:54:41.638Z,2.00
2023-06-19T21:58:41.438Z,1.20
2023-06-19T22:02:41.621Z,1.70
2023-06-19T22:06:41.604Z,1.50
2023-06-19T22:10:41.611Z,2.20
2023-06-19T22:14:41.617Z,3.40
2023-06-19T22:18:41.470Z,2.10
2023-06-19T22:22:41.618Z,2.30
2023-06-19T22:26:41.498Z,1.80
2023-06-19T22:30:41.487Z,2.70
2023-06-19T22:34:41.630Z,2.50
2023-06-19T22:38:41.654Z,4.20
2023-06-19T22:42:41.664Z,2.30
2023-06-19T22:46:41.496Z,3.90
2023-06-19T22:50:41.644Z,3.00
2023-06-19T22:54:41.569Z,2.30
2023-06-19T22:58:42.155Z,1.90
2023-06-19T23:02:42.548Z,2.30
2023-06-19T23:06:42.743Z,1.60
2023-06-19T23:10:42.041Z,1.60
2023-06-19T23:14:41.605Z,1.70
2023-06-19T23:18:41.638Z,1.90
2023-06-19T23:22:41.596Z,2.10
2023-06-19T23:26:41.774Z,3.00
2023-06-19T23:30:41.610Z,1.80
2023-06-19T23:34:41.757Z,1.40
2023-06-19T23:38:41.691Z,2.00
2023-06-19T23:46:41.819Z,1.60
2023-06-19T23:58:41.967Z,2.60
